sensor_id;sensor_type;location;lat;lon;timestamp;P1;P2;P0
77365;PMS5003;66430;50.182;11.704;2023-08-06T00:01:14;10;9;
77365;PMS5003;66430;50.182;11.704;2023-08-06T00:03:39;10;9;
77365;PMS5003;66430;50.182;11.704;2023-08-06T00:06:05;5;5;
77365;PMS5003;66430;50.182;11.704;2023-08-06T00:08:30;5;5;
77365;PMS5003;66430;50.182;11.704;2023-08-06T00:10:55;4;4;
77365;PMS5003;66430;50.182;11.704;2023-08-06T00:13:21;3;3;
77365;PMS5003;66430;50.182;11.704;2023-08-06T00:15:46;3;3;
77365;PMS5003;66430;50.182;11.704;2023-08-06T00:18:11;4;4;
77365;PMS5003;66430;50.182;11.704;2023-08-06T00:20:38;5;5;
77365;PMS5003;66430;50.182;11.704;2023-08-06T00:23:02;3;3;
77365;PMS5003;66430;50.182;11.704;2023-08-06T00:25:28;5;5;
77365;PMS5003;66430;50.182;11.704;2023-08-06T00:27:53;4;4;
77365;PMS5003;66430;50.182;11.704;2023-08-06T00:30:18;3;3;
77365;PMS5003;66430;50.182;11.704;2023-08-06T00:32:44;3;3;
77365;PMS5003;66430;50.182;11.704;2023-08-06T00:35:09;4;4;
77365;PMS5003;66430;50.182;11.704;2023-08-06T00:37:34;4;3;
77365;PMS5003;66430;50.182;11.704;2023-08-06T00:40:00;3;3;
77365;PMS5003;66430;50.182;11.704;2023-08-06T00:42:25;4;4;
77365;PMS5003;66430;50.182;11.704;2023-08-06T00:44:50;2;2;
77365;PMS5003;66430;50.182;11.704;2023-08-06T00:47:16;2;2;
77365;PMS5003;66430;50.182;11.704;2023-08-06T00:49:41;2;2;
77365;PMS5003;66430;50.182;11.704;2023-08-06T00:52:07;2;2;
77365;PMS5003;66430;50.182;11.704;2023-08-06T00:54:32;2;2;
77365;PMS5003;66430;50.182;11.704;2023-08-06T00:56:57;2;2;
77365;PMS5003;66430;50.182;11.704;2023-08-06T00:59:23;3;3;
77365;PMS5003;66430;50.182;11.704;2023-08-06T01:01:48;3;3;
77365;PMS5003;66430;50.182;11.704;2023-08-06T01:04:14;3;3;
77365;PMS5003;66430;50.182;11.704;2023-08-06T01:06:42;3;3;
77365;PMS5003;66430;50.182;11.704;2023-08-06T01:09:06;3;3;
77365;PMS5003;66430;50.182;11.704;2023-08-06T01:11:31;3;2;
77365;PMS5003;66430;50.182;11.704;2023-08-06T01:13:58;3;3;
77365;PMS5003;66430;50.182;11.704;2023-08-06T01:16:26;5;4;
77365;PMS5003;66430;50.182;11.704;2023-08-06T01:18:46;3;3;
77365;PMS5003;66430;50.182;11.704;2023-08-06T01:21:12;3;3;
77365;PMS5003;66430;50.182;11.704;2023-08-06T01:23:37;3;3;
77365;PMS5003;66430;50.182;11.704;2023-08-06T01:26:05;1;1;
77365;PMS5003;66430;50.182;11.704;2023-08-06T01:28:32;3;3;
77365;PMS5003;66430;50.182;11.704;2023-08-06T01:30:53;4;4;
77365;PMS5003;66430;50.182;11.704;2023-08-06T01:33:19;2;2;
77365;PMS5003;66430;50.182;11.704;2023-08-06T01:35:43;3;3;
77365;PMS5003;66430;50.182;11.704;2023-08-06T01:38:10;3;3;
77365;PMS5003;66430;50.182;11.704;2023-08-06T01:40:34;4;4;
77365;PMS5003;66430;50.182;11.704;2023-08-06T01:43:00;2;2;
77365;PMS5003;66430;50.182;11.704;2023-08-06T01:45:25;4;2;
77365;PMS5003;66430;50.182;11.704;2023-08-06T01:47:51;4;3;
77365;PMS5003;66430;50.182;11.704;2023-08-06T01:50:16;3;3;
77365;PMS5003;66430;50.182;11.704;2023-08-06T01:52:41;4;4;
77365;PMS5003;66430;50.182;11.704;2023-08-06T01:55:07;5;5;
77365;PMS5003;66430;50.182;11.704;2023-08-06T01:57:32;5;4;
77365;PMS5003;66430;50.182;11.704;2023-08-06T01:59:57;3;3;
77365;PMS5003;66430;50.182;11.704;2023-08-06T02:02:23;3;3;
77365;PMS5003;66430;50.182;11.704;2023-08-06T02:04:48;4;4;
77365;PMS5003;66430;50.182;11.704;2023-08-06T02:07:13;5;5;
77365;PMS5003;66430;50.182;11.704;2023-08-06T02:09:39;4;4;
77365;PMS5003;66430;50.182;11.704;2023-08-06T02:12:05;4;4;
77365;PMS5003;66430;50.182;11.704;2023-08-06T02:14:30;8;5;
77365;PMS5003;66430;50.182;11.704;2023-08-06T02:16:55;5;3;
77365;PMS5003;66430;50.182;11.704;2023-08-06T02:19:20;4;4;
77365;PMS5003;66430;50.182;11.704;2023-08-06T02:21:46;3;3;
77365;PMS5003;66430;50.182;11.704;2023-08-06T02:24:11;3;3;
77365;PMS5003;66430;50.182;11.704;2023-08-06T02:26:37;4;4;
77365;PMS5003;66430;50.182;11.704;2023-08-06T02:29:02;2;2;
77365;PMS5003;66430;50.182;11.704;2023-08-06T02:31:27;7;5;
77365;PMS5003;66430;50.182;11.704;2023-08-06T02:33:53;6;5;
77365;PMS5003;66430;50.182;11.704;2023-08-06T02:36:18;4;4;
77365;PMS5003;66430;50.182;11.704;2023-08-06T02:38:43;6;5;
77365;PMS5003;66430;50.182;11.704;2023-08-06T02:41:09;7;5;
77365;PMS5003;66430;50.182;11.704;2023-08-06T02:43:34;7;7;
77365;PMS5003;66430;50.182;11.704;2023-08-06T02:46:00;7;7;
77365;PMS5003;66430;50.182;11.704;2023-08-06T02:48:25;8;8;
77365;PMS5003;66430;50.182;11.704;2023-08-06T02:50:51;10;7;
77365;PMS5003;66430;50.182;11.704;2023-08-06T02:53:16;9;9;
77365;PMS5003;66430;50.182;11.704;2023-08-06T02:55:45;11;11;
77365;PMS5003;66430;50.182;11.704;2023-08-06T02:58:06;15;13;
77365;PMS5003;66430;50.182;11.704;2023-08-06T03:00:32;11;11;
77365;PMS5003;66430;50.182;11.704;2023-08-06T03:02:57;8;8;
77365;PMS5003;66430;50.182;11.704;2023-08-06T03:05:22;11;10;
77365;PMS5003;66430;50.182;11.704;2023-08-06T03:07:48;8;8;
77365;PMS5003;66430;50.182;11.704;2023-08-06T03:10:13;8;8;
77365;PMS5003;66430;50.182;11.704;2023-08-06T03:12:39;10;8;
77365;PMS5003;66430;50.182;11.704;2023-08-06T03:15:05;10;10;
77365;PMS5003;66430;50.182;11.704;2023-08-06T03:17:30;8;8;
77365;PMS5003;66430;50.182;11.704;2023-08-06T03:19:55;9;9;
77365;PMS5003;66430;50.182;11.704;2023-08-06T03:22:21;11;11;
77365;PMS5003;66430;50.182;11.704;2023-08-06T03:24:45;9;9;
77365;PMS5003;66430;50.182;11.704;2023-08-06T03:27:11;11;10;
77365;PMS5003;66430;50.182;11.704;2023-08-06T03:29:36;10;8;
77365;PMS5003;66430;50.182;11.704;2023-08-06T03:32:02;9;9;
77365;PMS5003;66430;50.182;11.704;2023-08-06T03:34:27;9;9;
77365;PMS5003;66430;50.182;11.704;2023-08-06T03:36:52;11;10;
77365;PMS5003;66430;50.182;11.704;2023-08-06T03:39:18;8;7;
77365;PMS5003;66430;50.182;11.704;2023-08-06T03:41:43;9;8;
77365;PMS5003;66430;50.182;11.704;2023-08-06T03:44:08;10;10;
77365;PMS5003;66430;50.182;11.704;2023-08-06T03:46:34;5;5;
77365;PMS5003;66430;50.182;11.704;2023-08-06T03:48:59;11;11;
77365;PMS5003;66430;50.182;11.704;2023-08-06T03:51:25;7;7;
77365;PMS5003;66430;50.182;11.704;2023-08-06T03:53:50;7;6;
77365;PMS5003;66430;50.182;11.704;2023-08-06T03:56:15;6;6;
77365;PMS5003;66430;50.182;11.704;2023-08-06T03:58:41;8;8;
77365;PMS5003;66430;50.182;11.704;2023-08-06T04:01:06;7;7;
77365;PMS5003;66430;50.182;11.704;2023-08-06T04:03:32;9;8;
77365;PMS5003;66430;50.182;11.704;2023-08-06T04:05:57;6;6;
77365;PMS5003;66430;50.182;11.704;2023-08-06T04:08:23;7;7;
77365;PMS5003;66430;50.182;11.704;2023-08-06T04:10:49;7;7;
77365;PMS5003;66430;50.182;11.704;2023-08-06T04:13:13;7;7;
77365;PMS5003;66430;50.182;11.704;2023-08-06T04:15:39;6;6;
77365;PMS5003;66430;50.182;11.704;2023-08-06T04:18:04;7;6;
77365;PMS5003;66430;50.182;11.704;2023-08-06T04:20:29;7;5;
77365;PMS5003;66430;50.182;11.704;2023-08-06T04:22:55;5;5;
77365;PMS5003;66430;50.182;11.704;2023-08-06T04:25:21;5;5;
77365;PMS5003;66430;50.182;11.704;2023-08-06T04:27:46;7;7;
77365;PMS5003;66430;50.182;11.704;2023-08-06T04:30:11;9;9;
77365;PMS5003;66430;50.182;11.704;2023-08-06T04:32:36;7;6;
77365;PMS5003;66430;50.182;11.704;2023-08-06T04:35:02;6;6;
77365;PMS5003;66430;50.182;11.704;2023-08-06T04:37:27;7;7;
77365;PMS5003;66430;50.182;11.704;2023-08-06T04:39:52;6;6;
77365;PMS5003;66430;50.182;11.704;2023-08-06T04:42:18;6;6;
77365;PMS5003;66430;50.182;11.704;2023-08-06T04:44:43;7;7;
77365;PMS5003;66430;50.182;11.704;2023-08-06T04:47:08;7;6;
77365;PMS5003;66430;50.182;11.704;2023-08-06T04:49:34;5;5;
77365;PMS5003;66430;50.182;11.704;2023-08-06T04:51:59;5;5;
77365;PMS5003;66430;50.182;11.704;2023-08-06T04:54:25;5;5;
77365;PMS5003;66430;50.182;11.704;2023-08-06T04:56:50;7;7;
77365;PMS5003;66430;50.182;11.704;2023-08-06T04:59:15;3;3;
77365;PMS5003;66430;50.182;11.704;2023-08-06T05:01:41;5;5;
77365;PMS5003;66430;50.182;11.704;2023-08-06T05:04:06;6;6;
77365;PMS5003;66430;50.182;11.704;2023-08-06T05:06:32;6;6;
77365;PMS5003;66430;50.182;11.704;2023-08-06T05:08:57;6;6;
77365;PMS5003;66430;50.182;11.704;2023-08-06T05:11:23;7;6;
77365;PMS5003;66430;50.182;11.704;2023-08-06T05:13:48;6;6;
77365;PMS5003;66430;50.182;11.704;2023-08-06T05:16:13;7;6;
77365;PMS5003;66430;50.182;11.704;2023-08-06T05:18:39;5;5;
77365;PMS5003;66430;50.182;11.704;2023-08-06T05:21:04;6;6;
77365;PMS5003;66430;50.182;11.704;2023-08-06T05:23:29;6;6;
77365;PMS5003;66430;50.182;11.704;2023-08-06T05:25:55;7;7;
77365;PMS5003;66430;50.182;11.704;2023-08-06T05:28:21;6;6;
77365;PMS5003;66430;50.182;11.704;2023-08-06T05:30:45;7;7;
77365;PMS5003;66430;50.182;11.704;2023-08-06T05:33:11;6;6;
77365;PMS5003;66430;50.182;11.704;2023-08-06T05:35:36;6;6;
77365;PMS5003;66430;50.182;11.704;2023-08-06T05:38:02;9;8;
77365;PMS5003;66430;50.182;11.704;2023-08-06T05:40:27;7;7;
77365;PMS5003;66430;50.182;11.704;2023-08-06T05:42:53;6;6;
77365;PMS5003;66430;50.182;11.704;2023-08-06T05:45:18;7;7;
77365;PMS5003;66430;50.182;11.704;2023-08-06T05:47:43;8;8;
77365;PMS5003;66430;50.182;11.704;2023-08-06T05:50:08;8;7;
77365;PMS5003;66430;50.182;11.704;2023-08-06T05:52:34;9;8;
77365;PMS5003;66430;50.182;11.704;2023-08-06T05:54:59;7;7;
77365;PMS5003;66430;50.182;11.704;2023-08-06T05:57:25;6;6;
77365;PMS5003;66430;50.182;11.704;2023-08-06T05:59:50;9;7;
77365;PMS5003;66430;50.182;11.704;2023-08-06T06:02:15;5;5;
77365;PMS5003;66430;50.182;11.704;2023-08-06T06:04:41;8;8;
77365;PMS5003;66430;50.182;11.704;2023-08-06T06:07:06;7;7;
77365;PMS5003;66430;50.182;11.704;2023-08-06T06:09:31;6;6;
77365;PMS5003;66430;50.182;11.704;2023-08-06T06:11:57;7;7;
77365;PMS5003;66430;50.182;11.704;2023-08-06T06:14:22;8;8;
77365;PMS5003;66430;50.182;11.704;2023-08-06T06:16:48;6;6;
77365;PMS5003;66430;50.182;11.704;2023-08-06T06:19:13;7;7;
77365;PMS5003;66430;50.182;11.704;2023-08-06T06:21:38;9;9;
77365;PMS5003;66430;50.182;11.704;2023-08-06T06:24:04;8;8;
77365;PMS5003;66430;50.182;11.704;2023-08-06T06:26:29;8;8;
77365;PMS5003;66430;50.182;11.704;2023-08-06T06:28:55;10;8;
77365;PMS5003;66430;50.182;11.704;2023-08-06T06:31:21;8;8;
77365;PMS5003;66430;50.182;11.704;2023-08-06T06:33:46;6;6;
77365;PMS5003;66430;50.182;11.704;2023-08-06T06:36:11;7;7;
77365;PMS5003;66430;50.182;11.704;2023-08-06T06:38:36;8;8;
77365;PMS5003;66430;50.182;11.704;2023-08-06T06:41:01;6;6;
77365;PMS5003;66430;50.182;11.704;2023-08-06T06:43:27;7;7;
77365;PMS5003;66430;50.182;11.704;2023-08-06T06:45:52;8;7;
77365;PMS5003;66430;50.182;11.704;2023-08-06T06:48:17;8;7;
77365;PMS5003;66430;50.182;11.704;2023-08-06T06:50:46;8;8;
77365;PMS5003;66430;50.182;11.704;2023-08-06T06:53:08;8;7;
77365;PMS5003;66430;50.182;11.704;2023-08-06T06:55:34;6;6;
77365;PMS5003;66430;50.182;11.704;2023-08-06T06:57:59;7;5;
77365;PMS5003;66430;50.182;11.704;2023-08-06T07:00:24;7;7;
77365;PMS5003;66430;50.182;11.704;2023-08-06T07:02:50;7;7;
77365;PMS5003;66430;50.182;11.704;2023-08-06T07:05:15;8;8;
77365;PMS5003;66430;50.182;11.704;2023-08-06T07:07:40;9;9;
77365;PMS5003;66430;50.182;11.704;2023-08-06T07:10:06;8;8;
77365;PMS5003;66430;50.182;11.704;2023-08-06T07:12:31;8;8;
77365;PMS5003;66430;50.182;11.704;2023-08-06T07:14:56;9;8;
77365;PMS5003;66430;50.182;11.704;2023-08-06T07:17:22;8;8;
77365;PMS5003;66430;50.182;11.704;2023-08-06T07:19:47;9;8;
77365;PMS5003;66430;50.182;11.704;2023-08-06T07:22:13;7;7;
77365;PMS5003;66430;50.182;11.704;2023-08-06T07:24:38;6;6;
77365;PMS5003;66430;50.182;11.704;2023-08-06T07:27:03;7;7;
77365;PMS5003;66430;50.182;11.704;2023-08-06T07:29:29;10;10;
77365;PMS5003;66430;50.182;11.704;2023-08-06T07:31:54;8;8;
77365;PMS5003;66430;50.182;11.704;2023-08-06T07:34:21;10;10;
77365;PMS5003;66430;50.182;11.704;2023-08-06T07:36:45;8;8;
77365;PMS5003;66430;50.182;11.704;2023-08-06T07:39:10;9;9;
77365;PMS5003;66430;50.182;11.704;2023-08-06T07:41:35;11;10;
77365;PMS5003;66430;50.182;11.704;2023-08-06T07:44:01;10;10;
77365;PMS5003;66430;50.182;11.704;2023-08-06T07:46:26;10;8;
77365;PMS5003;66430;50.182;11.704;2023-08-06T07:48:51;10;9;
77365;PMS5003;66430;50.182;11.704;2023-08-06T07:51:17;8;8;
77365;PMS5003;66430;50.182;11.704;2023-08-06T07:53:42;10;10;
77365;PMS5003;66430;50.182;11.704;2023-08-06T07:56:08;9;8;
77365;PMS5003;66430;50.182;11.704;2023-08-06T07:58:33;8;8;
77365;PMS5003;66430;50.182;11.704;2023-08-06T08:00:58;8;7;
77365;PMS5003;66430;50.182;11.704;2023-08-06T08:03:24;9;9;
77365;PMS5003;66430;50.182;11.704;2023-08-06T08:05:49;8;8;
77365;PMS5003;66430;50.182;11.704;2023-08-06T08:08:14;7;7;
77365;PMS5003;66430;50.182;11.704;2023-08-06T08:10:40;8;8;
77365;PMS5003;66430;50.182;11.704;2023-08-06T08:13:05;9;9;
77365;PMS5003;66430;50.182;11.704;2023-08-06T08:15:31;9;8;
77365;PMS5003;66430;50.182;11.704;2023-08-06T08:17:56;9;8;
77365;PMS5003;66430;50.182;11.704;2023-08-06T08:20:21;9;9;
77365;PMS5003;66430;50.182;11.704;2023-08-06T08:22:46;9;8;
77365;PMS5003;66430;50.182;11.704;2023-08-06T08:25:12;9;8;
77365;PMS5003;66430;50.182;11.704;2023-08-06T08:27:37;9;9;
77365;PMS5003;66430;50.182;11.704;2023-08-06T08:30:03;6;6;
77365;PMS5003;66430;50.182;11.704;2023-08-06T08:32:28;8;8;
77365;PMS5003;66430;50.182;11.704;2023-08-06T08:34:53;10;10;
77365;PMS5003;66430;50.182;11.704;2023-08-06T08:37:19;6;6;
77365;PMS5003;66430;50.182;11.704;2023-08-06T08:39:44;8;7;
77365;PMS5003;66430;50.182;11.704;2023-08-06T08:42:10;8;7;
77365;PMS5003;66430;50.182;11.704;2023-08-06T08:44:35;7;6;
77365;PMS5003;66430;50.182;11.704;2023-08-06T08:47:00;8;6;
77365;PMS5003;66430;50.182;11.704;2023-08-06T08:49:25;7;7;
77365;PMS5003;66430;50.182;11.704;2023-08-06T08:51:51;7;7;
77365;PMS5003;66430;50.182;11.704;2023-08-06T08:54:16;8;7;
77365;PMS5003;66430;50.182;11.704;2023-08-06T08:56:41;6;6;
77365;PMS5003;66430;50.182;11.704;2023-08-06T08:59:06;5;5;
77365;PMS5003;66430;50.182;11.704;2023-08-06T09:01:32;6;6;
77365;PMS5003;66430;50.182;11.704;2023-08-06T09:03:57;4;4;
77365;PMS5003;66430;50.182;11.704;2023-08-06T09:06:23;6;6;
77365;PMS5003;66430;50.182;11.704;2023-08-06T09:08:50;6;5;
77365;PMS5003;66430;50.182;11.704;2023-08-06T09:11:13;8;8;
77365;PMS5003;66430;50.182;11.704;2023-08-06T09:13:38;7;6;
77365;PMS5003;66430;50.182;11.704;2023-08-06T09:16:04;7;7;
77365;PMS5003;66430;50.182;11.704;2023-08-06T09:18:29;6;6;
77365;PMS5003;66430;50.182;11.704;2023-08-06T09:20:54;6;6;
77365;PMS5003;66430;50.182;11.704;2023-08-06T09:23:20;6;5;
77365;PMS5003;66430;50.182;11.704;2023-08-06T09:25:45;7;7;
77365;PMS5003;66430;50.182;11.704;2023-08-06T09:28:10;5;5;
77365;PMS5003;66430;50.182;11.704;2023-08-06T09:30:36;5;5;
77365;PMS5003;66430;50.182;11.704;2023-08-06T09:33:01;5;5;
77365;PMS5003;66430;50.182;11.704;2023-08-06T09:35:28;3;3;
77365;PMS5003;66430;50.182;11.704;2023-08-06T09:37:52;2;2;
77365;PMS5003;66430;50.182;11.704;2023-08-06T09:40:25;4;4;
77365;PMS5003;66430;50.182;11.704;2023-08-06T09:42:42;5;4;
77365;PMS5003;66430;50.182;11.704;2023-08-06T09:45:08;4;4;
77365;PMS5003;66430;50.182;11.704;2023-08-06T09:47:33;4;4;
77365;PMS5003;66430;50.182;11.704;2023-08-06T09:49:58;3;3;
77365;PMS5003;66430;50.182;11.704;2023-08-06T09:52:23;4;4;
77365;PMS5003;66430;50.182;11.704;2023-08-06T09:54:49;3;3;
77365;PMS5003;66430;50.182;11.704;2023-08-06T09:57:14;4;4;
77365;PMS5003;66430;50.182;11.704;2023-08-06T09:59:39;4;2;
77365;PMS5003;66430;50.182;11.704;2023-08-06T10:02:05;5;5;
77365;PMS5003;66430;50.182;11.704;2023-08-06T10:04:30;6;3;
77365;PMS5003;66430;50.182;11.704;2023-08-06T10:06:55;4;3;
77365;PMS5003;66430;50.182;11.704;2023-08-06T10:09:21;3;3;
77365;PMS5003;66430;50.182;11.704;2023-08-06T10:11:47;3;3;
77365;PMS5003;66430;50.182;11.704;2023-08-06T10:14:12;3;3;
77365;PMS5003;66430;50.182;11.704;2023-08-06T10:16:37;3;3;
77365;PMS5003;66430;50.182;11.704;2023-08-06T10:19:03;4;3;
77365;PMS5003;66430;50.182;11.704;2023-08-06T10:21:27;3;3;
77365;PMS5003;66430;50.182;11.704;2023-08-06T10:23:53;2;2;
77365;PMS5003;66430;50.182;11.704;2023-08-06T10:26:18;2;2;
77365;PMS5003;66430;50.182;11.704;2023-08-06T10:28:43;6;5;
77365;PMS5003;66430;50.182;11.704;2023-08-06T10:31:08;2;2;
77365;PMS5003;66430;50.182;11.704;2023-08-06T10:33:40;4;2;
77365;PMS5003;66430;50.182;11.704;2023-08-06T10:36:01;2;2;
77365;PMS5003;66430;50.182;11.704;2023-08-06T10:38:25;1;1;
77365;PMS5003;66430;50.182;11.704;2023-08-06T10:40:52;0;0;
77365;PMS5003;66430;50.182;11.704;2023-08-06T10:45:40;1;1;
77365;PMS5003;66430;50.182;11.704;2023-08-06T10:48:06;1;1;
77365;PMS5003;66430;50.182;11.704;2023-08-06T10:50:31;3;1;
77365;PMS5003;66430;50.182;11.704;2023-08-06T10:52:57;1;1;
77365;PMS5003;66430;50.182;11.704;2023-08-06T10:55:22;2;2;
77365;PMS5003;66430;50.182;11.704;2023-08-06T10:57:47;2;2;
77365;PMS5003;66430;50.182;11.704;2023-08-06T11:00:13;1;1;
77365;PMS5003;66430;50.182;11.704;2023-08-06T11:02:38;3;3;
77365;PMS5003;66430;50.182;11.704;2023-08-06T11:05:05;3;3;
77365;PMS5003;66430;50.182;11.704;2023-08-06T11:07:29;1;1;
77365;PMS5003;66430;50.182;11.704;2023-08-06T11:09:58;1;1;
77365;PMS5003;66430;50.182;11.704;2023-08-06T11:12:19;2;2;
77365;PMS5003;66430;50.182;11.704;2023-08-06T11:14:49;3;3;
77365;PMS5003;66430;50.182;11.704;2023-08-06T11:17:10;2;2;
77365;PMS5003;66430;50.182;11.704;2023-08-06T11:19:35;2;2;
77365;PMS5003;66430;50.182;11.704;2023-08-06T11:22:00;1;1;
77365;PMS5003;66430;50.182;11.704;2023-08-06T11:24:26;2;2;
77365;PMS5003;66430;50.182;11.704;2023-08-06T11:26:51;2;2;
77365;PMS5003;66430;50.182;11.704;2023-08-06T11:29:16;1;1;
77365;PMS5003;66430;50.182;11.704;2023-08-06T11:31:42;0;0;
77365;PMS5003;66430;50.182;11.704;2023-08-06T11:34:07;1;1;
77365;PMS5003;66430;50.182;11.704;2023-08-06T11:36:33;0;0;
77365;PMS5003;66430;50.182;11.704;2023-08-06T11:38:58;2;1;
77365;PMS5003;66430;50.182;11.704;2023-08-06T11:41:23;2;2;
77365;PMS5003;66430;50.182;11.704;2023-08-06T11:43:48;2;2;
77365;PMS5003;66430;50.182;11.704;2023-08-06T11:46:14;2;2;
77365;PMS5003;66430;50.182;11.704;2023-08-06T11:51:04;2;2;
77365;PMS5003;66430;50.182;11.704;2023-08-06T11:53:30;2;2;
77365;PMS5003;66430;50.182;11.704;2023-08-06T11:55:55;1;1;
77365;PMS5003;66430;50.182;11.704;2023-08-06T11:58:20;1;1;
77365;PMS5003;66430;50.182;11.704;2023-08-06T12:00:45;2;2;
77365;PMS5003;66430;50.182;11.704;2023-08-06T12:03:11;0;0;
77365;PMS5003;66430;50.182;11.704;2023-08-06T12:05:37;1;1;
77365;PMS5003;66430;50.182;11.704;2023-08-06T12:08:02;1;1;
77365;PMS5003;66430;50.182;11.704;2023-08-06T12:10:29;0;0;
77365;PMS5003;66430;50.182;11.704;2023-08-06T12:12:52;2;1;
77365;PMS5003;66430;50.182;11.704;2023-08-06T12:15:18;1;1;
77365;PMS5003;66430;50.182;11.704;2023-08-06T12:17:43;1;1;
77365;PMS5003;66430;50.182;11.704;2023-08-06T12:20:09;1;1;
77365;PMS5003;66430;50.182;11.704;2023-08-06T12:22:34;2;2;
77365;PMS5003;66430;50.182;11.704;2023-08-06T12:24:59;1;1;
77365;PMS5003;66430;50.182;11.704;2023-08-06T12:27:24;2;1;
77365;PMS5003;66430;50.182;11.704;2023-08-06T12:29:49;1;1;
77365;PMS5003;66430;50.182;11.704;2023-08-06T12:32:15;2;2;
77365;PMS5003;66430;50.182;11.704;2023-08-06T12:34:40;1;1;
77365;PMS5003;66430;50.182;11.704;2023-08-06T12:37:06;1;1;
77365;PMS5003;66430;50.182;11.704;2023-08-06T12:39:31;1;1;
77365;PMS5003;66430;50.182;11.704;2023-08-06T12:41:56;2;2;
77365;PMS5003;66430;50.182;11.704;2023-08-06T12:44:22;2;1;
77365;PMS5003;66430;50.182;11.704;2023-08-06T12:46:47;1;1;
77365;PMS5003;66430;50.182;11.704;2023-08-06T12:49:12;1;1;
77365;PMS5003;66430;50.182;11.704;2023-08-06T12:51:37;2;2;
77365;PMS5003;66430;50.182;11.704;2023-08-06T12:54:03;1;1;
77365;PMS5003;66430;50.182;11.704;2023-08-06T12:56:28;2;2;
77365;PMS5003;66430;50.182;11.704;2023-08-06T12:58:53;3;2;
77365;PMS5003;66430;50.182;11.704;2023-08-06T13:01:19;1;1;
77365;PMS5003;66430;50.182;11.704;2023-08-06T13:03:44;2;2;
77365;PMS5003;66430;50.182;11.704;2023-08-06T13:06:09;2;2;
77365;PMS5003;66430;50.182;11.704;2023-08-06T13:08:35;0;0;
77365;PMS5003;66430;50.182;11.704;2023-08-06T13:11:00;0;0;
77365;PMS5003;66430;50.182;11.704;2023-08-06T13:13:25;1;1;
77365;PMS5003;66430;50.182;11.704;2023-08-06T13:15:51;0;0;
77365;PMS5003;66430;50.182;11.704;2023-08-06T13:18:16;0;0;
77365;PMS5003;66430;50.182;11.704;2023-08-06T13:20:41;1;1;
77365;PMS5003;66430;50.182;11.704;2023-08-06T13:23:07;1;1;
77365;PMS5003;66430;50.182;11.704;2023-08-06T13:25:32;1;1;
77365;PMS5003;66430;50.182;11.704;2023-08-06T13:27:57;2;2;
77365;PMS5003;66430;50.182;11.704;2023-08-06T13:30:23;1;1;
77365;PMS5003;66430;50.182;11.704;2023-08-06T13:32:48;0;0;
77365;PMS5003;66430;50.182;11.704;2023-08-06T13:35:13;1;1;
77365;PMS5003;66430;50.182;11.704;2023-08-06T13:37:39;2;0;
77365;PMS5003;66430;50.182;11.704;2023-08-06T13:40:04;1;1;
77365;PMS5003;66430;50.182;11.704;2023-08-06T13:42:29;0;0;
77365;PMS5003;66430;50.182;11.704;2023-08-06T13:44:55;1;1;
77365;PMS5003;66430;50.182;11.704;2023-08-06T13:47:20;1;1;
77365;PMS5003;66430;50.182;11.704;2023-08-06T13:49:45;2;1;
77365;PMS5003;66430;50.182;11.704;2023-08-06T13:52:10;1;1;
77365;PMS5003;66430;50.182;11.704;2023-08-06T13:54:36;0;0;
77365;PMS5003;66430;50.182;11.704;2023-08-06T13:57:01;2;1;
77365;PMS5003;66430;50.182;11.704;2023-08-06T13:59:27;0;0;
77365;PMS5003;66430;50.182;11.704;2023-08-06T14:01:52;1;1;
77365;PMS5003;66430;50.182;11.704;2023-08-06T14:04:17;2;0;
77365;PMS5003;66430;50.182;11.704;2023-08-06T14:06:42;1;1;
77365;PMS5003;66430;50.182;11.704;2023-08-06T14:09:08;0;0;
77365;PMS5003;66430;50.182;11.704;2023-08-06T14:11:33;2;2;
77365;PMS5003;66430;50.182;11.704;2023-08-06T14:13:59;0;0;
77365;PMS5003;66430;50.182;11.704;2023-08-06T14:16:24;1;1;
77365;PMS5003;66430;50.182;11.704;2023-08-06T14:18:49;0;0;
77365;PMS5003;66430;50.182;11.704;2023-08-06T14:21:14;1;1;
77365;PMS5003;66430;50.182;11.704;2023-08-06T14:23:40;1;1;
77365;PMS5003;66430;50.182;11.704;2023-08-06T14:26:05;1;1;
77365;PMS5003;66430;50.182;11.704;2023-08-06T14:28:31;2;1;
77365;PMS5003;66430;50.182;11.704;2023-08-06T14:30:56;2;2;
77365;PMS5003;66430;50.182;11.704;2023-08-06T14:33:21;1;1;
77365;PMS5003;66430;50.182;11.704;2023-08-06T14:35:46;1;1;
77365;PMS5003;66430;50.182;11.704;2023-08-06T14:38:12;1;1;
77365;PMS5003;66430;50.182;11.704;2023-08-06T14:40:37;1;1;
77365;PMS5003;66430;50.182;11.704;2023-08-06T14:43:02;2;2;
77365;PMS5003;66430;50.182;11.704;2023-08-06T14:45:28;1;1;
77365;PMS5003;66430;50.182;11.704;2023-08-06T14:47:53;1;1;
77365;PMS5003;66430;50.182;11.704;2023-08-06T14:50:18;1;1;
77365;PMS5003;66430;50.182;11.704;2023-08-06T14:52:44;1;1;
77365;PMS5003;66430;50.182;11.704;2023-08-06T14:55:09;1;1;
77365;PMS5003;66430;50.182;11.704;2023-08-06T14:57:34;1;1;
77365;PMS5003;66430;50.182;11.704;2023-08-06T15:00:00;0;0;
77365;PMS5003;66430;50.182;11.704;2023-08-06T15:02:25;1;1;
77365;PMS5003;66430;50.182;11.704;2023-08-06T15:04:50;1;1;
77365;PMS5003;66430;50.182;11.704;2023-08-06T15:07:16;3;1;
77365;PMS5003;66430;50.182;11.704;2023-08-06T15:09:41;1;1;
77365;PMS5003;66430;50.182;11.704;2023-08-06T15:12:06;0;0;
77365;PMS5003;66430;50.182;11.704;2023-08-06T15:14:32;1;1;
77365;PMS5003;66430;50.182;11.704;2023-08-06T15:16:57;0;0;
77365;PMS5003;66430;50.182;11.704;2023-08-06T15:19:23;2;1;
77365;PMS5003;66430;50.182;11.704;2023-08-06T15:21:48;0;0;
77365;PMS5003;66430;50.182;11.704;2023-08-06T15:24:14;1;1;
77365;PMS5003;66430;50.182;11.704;2023-08-06T15:26:38;2;1;
77365;PMS5003;66430;50.182;11.704;2023-08-06T15:29:04;0;0;
77365;PMS5003;66430;50.182;11.704;2023-08-06T15:31:35;1;1;
77365;PMS5003;66430;50.182;11.704;2023-08-06T15:33:55;1;1;
77365;PMS5003;66430;50.182;11.704;2023-08-06T15:36:20;1;1;
77365;PMS5003;66430;50.182;11.704;2023-08-06T15:38:45;0;0;
77365;PMS5003;66430;50.182;11.704;2023-08-06T15:41:10;1;1;
77365;PMS5003;66430;50.182;11.704;2023-08-06T15:43:36;1;1;
77365;PMS5003;66430;50.182;11.704;2023-08-06T15:46:01;1;1;
77365;PMS5003;66430;50.182;11.704;2023-08-06T15:48:26;1;1;
77365;PMS5003;66430;50.182;11.704;2023-08-06T15:50:52;0;0;
77365;PMS5003;66430;50.182;11.704;2023-08-06T15:53:17;1;1;
77365;PMS5003;66430;50.182;11.704;2023-08-06T15:55:47;0;0;
77365;PMS5003;66430;50.182;11.704;2023-08-06T15:58:08;2;0;
77365;PMS5003;66430;50.182;11.704;2023-08-06T16:00:33;1;1;
77365;PMS5003;66430;50.182;11.704;2023-08-06T16:03:03;1;1;
77365;PMS5003;66430;50.182;11.704;2023-08-06T16:05:24;0;0;
77365;PMS5003;66430;50.182;11.704;2023-08-06T16:07:49;0;0;
77365;PMS5003;66430;50.182;11.704;2023-08-06T16:10:15;2;0;
77365;PMS5003;66430;50.182;11.704;2023-08-06T16:12:40;0;0;
77365;PMS5003;66430;50.182;11.704;2023-08-06T16:15:06;1;1;
77365;PMS5003;66430;50.182;11.704;2023-08-06T16:17:31;0;0;
77365;PMS5003;66430;50.182;11.704;2023-08-06T16:19:56;1;1;
77365;PMS5003;66430;50.182;11.704;2023-08-06T16:22:21;0;0;
77365;PMS5003;66430;50.182;11.704;2023-08-06T16:24:47;1;1;